Terminal Aerodrome Forecast
Issued by NWS Sioux Falls, SD

Home | Current Version | Previous Version | Text Only | Print | Product List | Glossary On
Versions: 1 2 3 4 5 6 7 8 9 10 11 12 13 14 15
000
FTUS43 KFSD 242326
TAFHON
TAF
KHON 242326Z 2500/2524 VRB05KT P6SM FEW200
     FM250700 11007KT P6SM SHRA VCTS BKN040CB BKN090
     FM251100 14010KT P6SM SCT025 BKN040
     FM251400 15006KT P6SM BKN025 OVC040
     FM251600 16008KT P6SM BKN040
     FM251800 19008KT P6SM BKN060=

USA.gov is the U.S. government's official web portal to all federal, state and local government web resources and services.